createdAt,value
2022-08-05T00:01:48.719Z,0
2022-08-05T00:06:41.657Z,0
2022-08-05T00:11:47.503Z,0
2022-08-05T00:16:52.181Z,0
2022-08-05T00:21:42.529Z,0
2022-08-05T00:26:43.355Z,0
2022-08-05T00:31:53.172Z,0
2022-08-05T00:37:09.269Z,0
2022-08-05T00:41:46.715Z,0
2022-08-05T00:46:42.831Z,0
2022-08-05T00:51:51.367Z,0
2022-08-05T00:56:41.847Z,0
2022-08-05T01:01:42.400Z,0
2022-08-05T01:06:41.907Z,0
2022-08-05T01:11:41.927Z,0
2022-08-05T01:16:44.179Z,0
2022-08-05T01:21:41.959Z,0
2022-08-05T01:26:41.993Z,0
2022-08-05T01:31:42.497Z,0
2022-08-05T01:36:42.267Z,0
2022-08-05T01:41:44.340Z,0
2022-08-05T01:46:46.147Z,0
2022-08-05T01:51:42.092Z,0
2022-08-05T01:58:09.041Z,0
2022-08-05T02:01:42.181Z,0
2022-08-05T02:06:42.191Z,0
2022-08-05T02:11:47.793Z,0
2022-08-05T02:16:42.185Z,0
2022-08-05T02:21:43.207Z,0
2022-08-05T02:26:54.146Z,0
2022-08-05T02:31:42.242Z,0
2022-08-05T02:36:42.264Z,0
2022-08-05T02:41:43.489Z,0
2022-08-05T02:46:43.833Z,0
2022-08-05T02:52:01.112Z,0
2022-08-05T02:56:42.359Z,0
2022-08-05T03:01:42.427Z,0
2022-08-05T03:06:53.529Z,0
2022-08-05T03:11:55.868Z,0
2022-08-05T03:16:42.452Z,0
2022-08-05T03:21:48.587Z,0
2022-08-05T03:26:42.494Z,0
2022-08-05T03:31:56.328Z,0
2022-08-05T03:36:42.534Z,0
2022-08-05T03:41:45.328Z,0
2022-08-05T03:46:42.593Z,0
2022-08-05T03:52:36.325Z,0
2022-08-05T03:56:42.625Z,0
2022-08-05T04:01:42.721Z,0
2022-08-05T04:06:47.695Z,0
2022-08-05T04:11:47.199Z,0
2022-08-05T04:16:42.697Z,2
2022-08-05T04:22:05.533Z,2
2022-08-05T04:26:42.721Z,5
2022-08-05T04:31:42.881Z,7
2022-08-05T04:36:46.403Z,11
2022-08-05T04:41:42.804Z,3
2022-08-05T04:46:42.827Z,1
2022-08-05T04:51:42.824Z,3
2022-08-05T04:56:43.582Z,7
2022-08-05T05:02:06.473Z,16
2022-08-05T05:06:44.573Z,15
2022-08-05T05:11:53.019Z,13
2022-08-05T05:16:42.941Z,4
2022-08-05T05:21:42.944Z,4
2022-08-05T05:26:43.003Z,9
2022-08-05T05:31:43.005Z,17
2022-08-05T05:36:43.022Z,14
2022-08-05T05:41:43.068Z,21
2022-08-05T05:46:43.069Z,19
2022-08-05T05:51:49.807Z,16
2022-08-05T05:56:43.165Z,20
2022-08-05T06:01:53.828Z,20
2022-08-05T06:06:46.574Z,24
2022-08-05T06:11:43.162Z,25
2022-08-05T06:16:43.189Z,14
2022-08-05T06:21:49.453Z,14
2022-08-05T06:26:51.910Z,4
2022-08-05T06:31:43.265Z,9
2022-08-05T06:36:57.765Z,16
2022-08-05T06:41:43.320Z,21
2022-08-05T06:46:43.328Z,55
2022-08-05T06:51:43.379Z,59
2022-08-05T06:56:54.344Z,61
2022-08-05T07:01:43.462Z,64
2022-08-05T07:06:43.419Z,112
2022-08-05T07:11:46.720Z,118
2022-08-05T07:17:57.959Z,126
2022-08-05T07:21:59.175Z,178
2022-08-05T07:26:43.498Z,170
2022-08-05T07:31:54.338Z,178
2022-08-05T07:36:43.536Z,178
2022-08-05T07:42:07.591Z,235
2022-08-05T07:46:46.726Z,110
2022-08-05T07:51:49.055Z,120
2022-08-05T07:57:02.981Z,99
2022-08-05T08:01:51.855Z,109
2022-08-05T08:06:43.670Z,113
2022-08-05T08:11:47.719Z,130
2022-08-05T08:16:50.565Z,99
2022-08-05T08:21:43.769Z,109
2022-08-05T08:26:43.770Z,124
2022-08-05T08:31:43.792Z,143
2022-08-05T08:36:47.495Z,135
2022-08-05T08:41:51.499Z,140
2022-08-05T08:46:43.862Z,130
2022-08-05T08:52:02.567Z,128
2022-08-05T08:56:47.491Z,144
2022-08-05T09:01:43.874Z,139
2022-08-05T09:06:43.910Z,152
2022-08-05T09:11:50.615Z,121
2022-08-05T09:16:45.443Z,97
2022-08-05T09:22:18.221Z,46
2022-08-05T09:26:44.033Z,28
2022-08-05T09:32:40.550Z,43
2022-08-05T09:36:45.984Z,28
2022-08-05T09:41:44.032Z,52
2022-08-05T09:46:51.967Z,46
2022-08-05T09:51:44.111Z,84
2022-08-05T09:56:45.680Z,73
2022-08-05T10:01:45.700Z,111
2022-08-05T10:06:50.005Z,84
2022-08-05T10:11:44.192Z,39
2022-08-05T10:16:52.318Z,24
2022-08-05T10:21:44.252Z,23
2022-08-05T10:26:49.236Z,62
2022-08-05T10:32:51.406Z,67
2022-08-05T10:36:44.312Z,119
2022-08-05T10:41:45.080Z,175
2022-08-05T10:46:44.338Z,181
2022-08-05T10:51:53.209Z,127
2022-08-05T10:56:44.415Z,94
2022-08-05T11:01:55.751Z,79
2022-08-05T11:06:44.405Z,46
2022-08-05T11:11:53.094Z,112
2022-08-05T11:16:48.044Z,114
2022-08-05T11:21:49.084Z,150
2022-08-05T11:26:49.376Z,105
2022-08-05T11:31:54.675Z,119
2022-08-05T11:36:44.562Z,142
2022-08-05T11:41:56.142Z,167
2022-08-05T11:46:58.913Z,217
2022-08-05T11:51:54.141Z,296
2022-08-05T11:56:54.153Z,285
2022-08-05T12:01:54.139Z,241
2022-08-05T12:06:54.128Z,283
2022-08-05T12:11:54.149Z,236
2022-08-05T12:16:54.138Z,209
2022-08-05T12:21:54.130Z,209
2022-08-05T12:26:54.108Z,229
2022-08-05T12:31:54.570Z,266
2022-08-05T12:36:54.145Z,252
2022-08-05T12:41:56.611Z,226
2022-08-05T12:46:54.098Z,262
2022-08-05T12:52:11.396Z,325
2022-08-05T12:56:54.158Z,410
2022-08-05T13:02:04.592Z,358
2022-08-05T13:06:54.122Z,519
2022-08-05T13:12:02.436Z,322
2022-08-05T13:16:54.102Z,299
2022-08-05T13:21:55.974Z,309
2022-08-05T13:26:54.120Z,362
2022-08-05T13:32:03.614Z,749
2022-08-05T13:36:54.103Z,668
2022-08-05T13:41:54.097Z,504
2022-08-05T13:47:02.110Z,304
2022-08-05T13:51:54.142Z,260
2022-08-05T13:56:54.085Z,278
2022-08-05T14:01:57.061Z,190
2022-08-05T14:06:58.579Z,158
2022-08-05T14:12:00.497Z,133
2022-08-05T14:16:55.277Z,128
2022-08-05T14:22:07.561Z,196
2022-08-05T14:27:08.729Z,304
2022-08-05T14:31:54.662Z,335
2022-08-05T14:36:54.072Z,420
2022-08-05T14:42:17.028Z,746
2022-08-05T14:46:54.089Z,617
2022-08-05T14:51:54.100Z,415
2022-08-05T14:56:54.842Z,220
2022-08-05T15:01:54.125Z,160
2022-08-05T15:06:54.061Z,204
2022-08-05T15:11:54.067Z,433
2022-08-05T15:16:54.074Z,598
2022-08-05T15:21:54.091Z,516
2022-08-05T15:26:54.090Z,520
2022-08-05T15:31:54.063Z,323
2022-08-05T15:36:54.080Z,165
2022-08-05T15:41:55.363Z,188
2022-08-05T15:46:54.087Z,95
2022-08-05T15:52:04.660Z,38
2022-08-05T15:56:54.092Z,52
2022-08-05T16:01:54.152Z,133
2022-08-05T16:06:54.066Z,330
2022-08-05T16:11:54.358Z,416
2022-08-05T16:16:54.113Z,383
2022-08-05T16:21:59.172Z,256
2022-08-05T16:26:54.055Z,208
2022-08-05T16:31:56.019Z,195
2022-08-05T16:36:54.082Z,171
2022-08-05T16:42:13.134Z,149
2022-08-05T16:46:55.572Z,138
2022-08-05T16:51:56.963Z,120
2022-08-05T16:56:54.866Z,88
2022-08-05T17:01:55.766Z,97
2022-08-05T17:06:54.863Z,94
2022-08-05T17:11:59.582Z,68
2022-08-05T17:16:54.858Z,33
2022-08-05T17:21:54.833Z,36
2022-08-05T17:26:55.472Z,53
2022-08-05T17:31:56.611Z,57
2022-08-05T17:36:54.850Z,41
2022-08-05T17:42:17.141Z,34
2022-08-05T17:46:54.812Z,24
2022-08-05T17:51:54.813Z,21
2022-08-05T17:56:54.814Z,20
2022-08-05T18:01:54.796Z,17
2022-08-05T18:06:54.830Z,18
2022-08-05T18:11:54.823Z,16
2022-08-05T18:22:08.051Z,11
2022-08-05T18:26:54.885Z,10
2022-08-05T18:31:54.945Z,20
2022-08-05T18:36:54.929Z,11
2022-08-05T18:42:02.072Z,7
2022-08-05T18:46:55.015Z,7
2022-08-05T18:52:03.482Z,2
2022-08-05T18:56:54.999Z,2
2022-08-05T19:01:56.894Z,2
2022-08-05T19:06:55.687Z,0
2022-08-05T19:11:59.711Z,0
2022-08-05T19:16:55.728Z,0
2022-08-05T19:21:55.774Z,0
2022-08-05T19:26:55.858Z,0
2022-08-05T19:31:55.842Z,0
2022-08-05T19:36:55.812Z,0
2022-08-05T19:42:06.734Z,0
2022-08-05T19:46:55.870Z,0
2022-08-05T19:52:06.417Z,0
2022-08-05T19:56:55.918Z,0
2022-08-05T20:01:55.913Z,0
2022-08-05T20:06:55.974Z,0
2022-08-05T20:11:55.955Z,0
2022-08-05T20:16:55.986Z,0
2022-08-05T20:21:56.002Z,0
2022-08-05T20:26:56.023Z,0
2022-08-05T20:31:58.215Z,0
2022-08-05T20:36:56.039Z,0
2022-08-05T20:41:56.080Z,0
2022-08-05T20:46:56.146Z,0
2022-08-05T20:51:57.559Z,0
2022-08-05T20:56:56.171Z,0
2022-08-05T21:01:56.315Z,0
2022-08-05T21:06:56.205Z,0
2022-08-05T21:12:08.054Z,0
2022-08-05T21:16:56.210Z,0
2022-08-05T21:21:56.264Z,0
2022-08-05T21:26:57.865Z,0
2022-08-05T21:31:56.575Z,0
2022-08-05T21:36:56.548Z,0
2022-08-05T21:42:01.349Z,0
2022-08-05T21:46:57.956Z,0
2022-08-05T21:52:16.817Z,0
2022-08-05T21:57:15.363Z,0
2022-08-05T22:01:56.676Z,0
2022-08-05T22:06:57.037Z,0
2022-08-05T22:11:56.975Z,0
2022-08-05T22:17:00.136Z,0
2022-08-05T22:21:56.762Z,0
2022-08-05T22:26:56.806Z,0
2022-08-05T22:31:59.655Z,0
2022-08-05T22:36:56.798Z,0
2022-08-05T22:42:05.874Z,0
2022-08-05T22:46:56.886Z,0
2022-08-05T22:52:03.265Z,0
2022-08-05T22:56:56.921Z,0
2022-08-05T23:02:05.375Z,0
2022-08-05T23:06:56.965Z,0
2022-08-05T23:11:56.979Z,0
2022-08-05T23:16:56.958Z,0
2022-08-05T23:21:56.985Z,0
2022-08-05T23:26:57.085Z,0
2022-08-05T23:31:57.033Z,0
2022-08-05T23:36:57.079Z,0
2022-08-05T23:41:57.060Z,0
2022-08-05T23:46:57.089Z,0
2022-08-05T23:51:57.122Z,0
2022-08-05T23:56:58.245Z,0
